Time;durP1;ratioP1;P1;durP2;ratioP2;P2;SDS_P1;SDS_P2;PMS_P1;PMS_P2;Temp;Humidity;BMP_temperature;BMP_pressure;BME280_temperature;BME280_humidity;BME280_pressure;Samples;Min_cycle;Max_cycle;Signal;HPM_P1;HPM_P2
2022/08/10 00:02:23;;;;;;;11.45;4.90;;;;;;;;;;7309920;19;154998;-16
2022/08/10 00:04:56;;;;;;;9.57;4.20;;;;;;;;;;7302835;19;154745;-15
2022/08/10 00:07:29;;;;;;;9.02;4.72;;;;;;;;;;7306607;19;162736;-16
2022/08/10 00:10:02;;;;;;;10.60;4.70;;;;;;;;;;7308906;19;162935;-16
2022/08/10 00:12:38;;;;;;;11.98;4.93;;;;;;;;;;7310240;19;154450;-16
2022/08/10 00:15:15;;;;;;;6.43;4.18;;;;;;;;;;7315624;19;154311;-15
2022/08/10 00:17:48;;;;;;;9.40;4.72;;;;;;;;;;7314300;19;162362;-16
2022/08/10 00:20:25;;;;;;;9.77;4.78;;;;;;;;;;7315986;19;163225;-15
2022/08/10 00:22:59;;;;;;;7.53;4.15;;;;;;;;;;7314674;19;154571;-16
2022/08/10 00:25:30;;;;;;;7.40;3.65;;;;;;;;;;7312469;19;154454;-15
2022/08/10 00:28:05;;;;;;;8.82;4.90;;;;;;;;;;7313514;19;162974;-15
2022/08/10 00:30:36;;;;;;;8.15;4.88;;;;;;;;;;7315593;19;162783;-15
2022/08/10 00:33:07;;;;;;;8.82;4.43;;;;;;;;;;7313980;19;154491;-15
2022/08/10 00:35:38;;;;;;;9.48;3.90;;;;;;;;;;7314726;19;153996;-15
2022/08/10 00:38:09;;;;;;;9.10;4.25;;;;;;;;;;7315608;19;162786;-15
2022/08/10 00:40:41;;;;;;;9.20;4.50;;;;;;;;;;7313824;19;162788;-16
2022/08/10 00:43:15;;;;;;;7.20;4.05;;;;;;;;;;7315906;19;154520;-19
2022/08/10 00:45:46;;;;;;;7.00;4.47;;;;;;;;;;7315813;19;153949;-15
2022/08/10 00:48:17;;;;;;;4.78;4.15;;;;;;;;;;7314780;19;162247;-16
2022/08/10 00:50:49;;;;;;;10.88;4.88;;;;;;;;;;7315319;19;163237;-16
2022/08/10 00:53:21;;;;;;;12.02;5.30;;;;;;;;;;7313337;19;154609;-15
2022/08/10 00:55:52;;;;;;;10.65;4.50;;;;;;;;;;7315637;19;154000;-15
2022/08/10 00:58:26;;;;;;;9.23;4.05;;;;;;;;;;7315567;19;162423;-19
2022/08/10 01:00:58;;;;;;;8.05;4.63;;;;;;;;;;7314077;19;162842;-16
2022/08/10 01:03:29;;;;;;;7.55;4.20;;;;;;;;;;7314518;19;154574;-15
2022/08/10 01:06:09;;;;;;;6.45;4.30;;;;;;;;;;7315958;19;154477;-15
2022/08/10 01:08:49;;;;;;;6.85;4.35;;;;;;;;;;7314386;19;162271;-15
2022/08/10 01:11:28;;;;;;;6.22;4.60;;;;;;;;;;7314181;19;162817;-15
2022/08/10 01:14:09;;;;;;;6.53;4.00;;;;;;;;;;7316640;19;154639;-15
2022/08/10 01:16:49;;;;;;;7.97;4.13;;;;;;;;;;7313966;19;154398;-15
2022/08/10 01:19:42;;;;;;;5.35;4.07;;;;;;;;;;7314090;19;162695;-15
2022/08/10 01:22:33;;;;;;;8.02;4.82;;;;;;;;;;7315994;19;162947;-16
2022/08/10 01:25:27;;;;;;;8.80;4.85;;;;;;;;;;7312897;19;154986;-23
2022/08/10 01:28:09;;;;;;;6.53;4.28;;;;;;;;;;7313529;19;154489;-15
2022/08/10 01:30:47;;;;;;;9.75;4.38;;;;;;;;;;7312390;19;162306;-15
2022/08/10 01:33:26;;;;;;;11.52;4.63;;;;;;;;;;7311714;19;162564;-15
2022/08/10 01:36:00;;;;;;;6.38;4.10;;;;;;;;;;7315194;19;154932;-15
2022/08/10 01:38:35;;;;;;;5.93;3.83;;;;;;;;;;7312418;19;154137;-15
2022/08/10 01:41:10;;;;;;;8.57;3.80;;;;;;;;;;7312273;19;161757;-15
2022/08/10 01:43:45;;;;;;;5.10;3.70;;;;;;;;;;7313187;19;163281;-15
2022/08/10 01:46:24;;;;;;;5.00;4.20;;;;;;;;;;7315027;19;154502;-15
2022/08/10 01:48:56;;;;;;;7.57;3.90;;;;;;;;;;7311501;19;154249;-15
2022/08/10 01:51:32;;;;;;;7.73;4.27;;;;;;;;;;7312710;19;162387;-16
2022/08/10 01:54:09;;;;;;;6.55;4.20;;;;;;;;;;7309825;19;162943;-15
2022/08/10 01:56:45;;;;;;;7.40;4.10;;;;;;;;;;7315307;19;154773;-16
2022/08/10 01:59:20;;;;;;;5.97;3.95;;;;;;;;;;7313046;19;154119;-15
2022/08/10 02:01:58;;;;;;;8.50;4.47;;;;;;;;;;7314807;19;162243;-15
2022/08/10 02:04:32;;;;;;;5.95;3.60;;;;;;;;;;7313676;19;162851;-15
2022/08/10 02:07:04;;;;;;;6.22;3.92;;;;;;;;;;7313908;19;154487;-15
2022/08/10 02:09:41;;;;;;;9.82;4.55;;;;;;;;;;7312789;19;154087;-15
2022/08/10 02:12:15;;;;;;;6.80;4.20;;;;;;;;;;7312816;19;163094;-15
2022/08/10 02:14:52;;;;;;;6.18;3.95;;;;;;;;;;7312327;19;163426;-16
2022/08/10 02:17:29;;;;;;;4.32;3.85;;;;;;;;;;7312508;19;154868;-15
2022/08/10 02:20:04;;;;;;;6.07;4.32;;;;;;;;;;7313975;19;154551;-18
2022/08/10 02:22:37;;;;;;;6.63;3.92;;;;;;;;;;7312237;19;162420;-16
2022/08/10 02:25:11;;;;;;;7.75;3.78;;;;;;;;;;7312537;19;163016;-16
2022/08/10 02:27:44;;;;;;;6.35;4.03;;;;;;;;;;7314415;19;154540;-16
2022/08/10 02:30:16;;;;;;;5.22;4.07;;;;;;;;;;7311908;19;154497;-17
2022/08/10 02:32:51;;;;;;;6.18;4.00;;;;;;;;;;7312148;19;162921;-16
2022/08/10 02:35:23;;;;;;;4.93;3.85;;;;;;;;;;7309531;19;163385;-16
2022/08/10 02:37:59;;;;;;;5.53;3.72;;;;;;;;;;7313196;19;154006;-17
2022/08/10 02:40:33;;;;;;;6.55;3.42;;;;;;;;;;7310291;19;154017;-17
2022/08/10 02:43:10;;;;;;;6.10;3.75;;;;;;;;;;7312533;19;162215;-16
2022/08/10 02:46:06;;;;;;;5.18;3.78;;;;;;;;;;7311818;19;163257;-16
2022/08/10 02:48:44;;;;;;;7.00;4.45;;;;;;;;;;7313048;19;154912;-16
2022/08/10 02:51:21;;;;;;;6.28;3.83;;;;;;;;;;7311442;19;154566;-16
2022/08/10 02:53:56;;;;;;;5.85;3.60;;;;;;;;;;7312054;19;162745;-16
2022/08/10 02:56:34;;;;;;;5.38;3.65;;;;;;;;;;7310934;19;162825;-16
2022/08/10 02:59:10;;;;;;;5.07;3.67;;;;;;;;;;7311619;19;154569;-16
2022/08/10 03:01:45;;;;;;;6.65;3.78;;;;;;;;;;7312140;19;153911;-16
2022/08/10 03:04:23;;;;;;;6.88;3.60;;;;;;;;;;7311277;19;162984;-16
2022/08/10 03:06:59;;;;;;;7.93;3.63;;;;;;;;;;7311005;19;162882;-17
2022/08/10 03:09:33;;;;;;;6.80;3.80;;;;;;;;;;7309367;19;154531;-17
2022/08/10 03:12:07;;;;;;;8.90;4.28;;;;;;;;;;7311426;19;154446;-17
2022/08/10 03:14:40;;;;;;;6.68;3.42;;;;;;;;;;7306609;19;162488;-17
2022/08/10 03:17:12;;;;;;;7.15;4.00;;;;;;;;;;7311402;19;163228;-17
2022/08/10 03:19:47;;;;;;;4.60;3.83;;;;;;;;;;7310895;19;154424;-17
2022/08/10 03:22:19;;;;;;;5.03;3.47;;;;;;;;;;7311453;19;153861;-16
2022/08/10 03:24:51;;;;;;;6.00;3.75;;;;;;;;;;7312062;19;162305;-17
2022/08/10 03:27:24;;;;;;;5.50;4.27;;;;;;;;;;7311025;19;162812;-17
2022/08/10 03:29:56;;;;;;;5.57;3.67;;;;;;;;;;7311689;19;155025;-17
2022/08/10 03:32:28;;;;;;;7.10;3.88;;;;;;;;;;7312629;19;154020;-17
2022/08/10 03:35:02;;;;;;;6.40;3.87;;;;;;;;;;7307876;19;162269;-17
2022/08/10 03:37:33;;;;;;;6.13;3.47;;;;;;;;;;7311754;19;163494;-16
2022/08/10 03:40:05;;;;;;;5.25;3.58;;;;;;;;;;7309105;19;154591;-17
2022/08/10 03:42:39;;;;;;;5.20;4.13;;;;;;;;;;7310004;19;154097;-16
2022/08/10 03:45:11;;;;;;;4.40;3.55;;;;;;;;;;7311768;19;162326;-17
2022/08/10 03:47:44;;;;;;;6.55;3.75;;;;;;;;;;7313865;19;163345;-17
2022/08/10 03:50:19;;;;;;;5.18;3.47;;;;;;;;;;7316177;19;155571;-17
2022/08/10 03:52:51;;;;;;;5.85;3.55;;;;;;;;;;7316375;19;154335;-17
2022/08/10 03:55:23;;;;;;;5.93;3.63;;;;;;;;;;7314119;19;162254;-17
2022/08/10 03:57:54;;;;;;;6.03;3.80;;;;;;;;;;7317073;19;163017;-17
2022/08/10 04:00:27;;;;;;;4.63;3.92;;;;;;;;;;7317236;19;154797;-17
2022/08/10 04:03:00;;;;;;;4.20;3.30;;;;;;;;;;7317469;19;154063;-17
2022/08/10 04:05:34;;;;;;;6.15;3.75;;;;;;;;;;7316810;19;162679;-17
2022/08/10 04:08:06;;;;;;;4.78;3.40;;;;;;;;;;7316578;19;163386;-17
2022/08/10 04:10:37;;;;;;;4.83;3.53;;;;;;;;;;7317309;19;154491;-17
2022/08/10 04:13:08;;;;;;;4.28;3.28;;;;;;;;;;7316957;19;154012;-15
2022/08/10 04:15:39;;;;;;;6.22;4.50;;;;;;;;;;7314245;19;162440;-15
2022/08/10 04:18:11;;;;;;;3.42;3.13;;;;;;;;;;7314860;19;162539;-16
2022/08/10 04:20:49;;;;;;;6.13;3.38;;;;;;;;;;7313567;19;154409;-16
2022/08/10 04:23:24;;;;;;;4.28;3.63;;;;;;;;;;7316487;19;153897;-15
2022/08/10 04:25:56;;;;;;;4.10;3.42;;;;;;;;;;7316355;19;162318;-16
2022/08/10 04:28:28;;;;;;;4.93;3.87;;;;;;;;;;7315839;19;163233;-16
2022/08/10 04:31:01;;;;;;;5.20;3.42;;;;;;;;;;7315163;19;154421;-15
2022/08/10 04:33:34;;;;;;;3.70;3.40;;;;;;;;;;7316358;19;154109;-16
2022/08/10 04:36:11;;;;;;;5.18;3.60;;;;;;;;;;7315632;19;163012;-16
2022/08/10 04:38:44;;;;;;;5.35;3.58;;;;;;;;;;7315761;19;162902;-15
2022/08/10 04:41:16;;;;;;;4.55;3.60;;;;;;;;;;7313492;19;154418;-16
2022/08/10 04:43:48;;;;;;;3.65;3.28;;;;;;;;;;7315962;19;154320;-16
2022/08/10 04:46:19;;;;;;;4.57;3.30;;;;;;;;;;7315638;19;162284;-17
2022/08/10 04:48:50;;;;;;;5.22;3.20;;;;;;;;;;7315495;19;162886;-16
2022/08/10 04:51:24;;;;;;;4.55;3.58;;;;;;;;;;7314171;19;154471;-16
2022/08/10 04:53:55;;;;;;;3.50;3.20;;;;;;;;;;7314007;19;154166;-16
2022/08/10 04:56:26;;;;;;;4.05;3.47;;;;;;;;;;7314951;19;162893;-16
2022/08/10 04:58:58;;;;;;;4.32;3.92;;;;;;;;;;7312719;19;163304;-16
2022/08/10 05:01:31;;;;;;;3.88;3.47;;;;;;;;;;7315490;19;154867;-16
2022/08/10 05:04:02;;;;;;;3.95;3.55;;;;;;;;;;7315353;19;154525;-15
2022/08/10 05:06:36;;;;;;;3.47;3.13;;;;;;;;;;7315075;19;162568;-16
2022/08/10 05:09:08;;;;;;;5.70;3.60;;;;;;;;;;7314686;19;162793;-16
2022/08/10 05:11:39;;;;;;;3.40;3.13;;;;;;;;;;7313650;19;154523;-16
2022/08/10 05:14:10;;;;;;;4.30;3.58;;;;;;;;;;7314823;19;154040;-16
2022/08/10 05:16:42;;;;;;;4.07;3.50;;;;;;;;;;7314661;19;162206;-16
2022/08/10 05:19:13;;;;;;;4.43;3.30;;;;;;;;;;7314586;19;162760;-16
2022/08/10 05:21:47;;;;;;;3.78;3.40;;;;;;;;;;7313503;19;154585;-16
2022/08/10 05:24:18;;;;;;;4.28;3.50;;;;;;;;;;7314756;19;154004;-16
2022/08/10 05:26:49;;;;;;;6.10;3.85;;;;;;;;;;7314341;19;162285;-16
2022/08/10 05:29:20;;;;;;;7.20;4.43;;;;;;;;;;7314324;19;162749;-15
2022/08/10 05:31:52;;;;;;;10.05;5.22;;;;;;;;;;7314535;19;154854;-16
2022/08/10 05:34:26;;;;;;;8.93;5.30;;;;;;;;;;7314611;19;154265;-16
2022/08/10 05:37:00;;;;;;;6.10;5.13;;;;;;;;;;7314174;19;162393;-16
2022/08/10 05:39:31;;;;;;;6.70;5.85;;;;;;;;;;7313245;19;162806;-16
2022/08/10 05:42:04;;;;;;;9.90;5.07;;;;;;;;;;7314213;19;155074;-16
2022/08/10 05:44:36;;;;;;;7.78;5.20;;;;;;;;;;7313804;19;154371;-16
2022/08/10 05:47:08;;;;;;;7.27;5.20;;;;;;;;;;7313167;19;162263;-16
2022/08/10 05:49:42;;;;;;;9.95;6.05;;;;;;;;;;7313851;19;163141;-16
2022/08/10 05:52:16;;;;;;;12.75;6.45;;;;;;;;;;7315850;19;154518;-16
2022/08/10 05:54:49;;;;;;;12.70;6.05;;;;;;;;;;7313082;19;154152;-16
2022/08/10 05:57:22;;;;;;;8.70;6.10;;;;;;;;;;7310298;19;161819;-20
2022/08/10 06:00:04;;;;;;;8.25;5.82;;;;;;;;;;7310971;19;162784;-16
2022/08/10 06:02:45;;;;;;;10.40;5.95;;;;;;;;;;7307722;19;155117;-16
2022/08/10 06:05:18;;;;;;;9.20;5.80;;;;;;;;;;7312116;19;154406;-16
2022/08/10 06:07:56;;;;;;;9.38;6.25;;;;;;;;;;7310741;19;162767;-16
2022/08/10 06:10:30;;;;;;;7.18;5.78;;;;;;;;;;7311303;19;163373;-17
2022/08/10 06:15:49;;;;;;;8.90;6.25;;;;;;;;;;7309268;19;153682;-16
2022/08/10 06:18:21;;;;;;;8.52;6.10;;;;;;;;;;7312950;19;162768;-16
2022/08/10 06:20:54;;;;;;;7.03;5.87;;;;;;;;;;7309895;19;163227;-16
2022/08/10 06:23:29;;;;;;;12.85;6.82;;;;;;;;;;7312793;19;154380;-16
2022/08/10 06:26:01;;;;;;;10.10;5.95;;;;;;;;;;7312746;19;154556;-16
2022/08/10 06:28:36;;;;;;;12.65;6.22;;;;;;;;;;7312572;19;162126;-16
2022/08/10 06:31:08;;;;;;;11.98;7.13;;;;;;;;;;7312108;19;162987;-16
2022/08/10 06:33:42;;;;;;;9.65;7.38;;;;;;;;;;7312433;19;154499;-16
2022/08/10 06:36:14;;;;;;;12.43;7.47;;;;;;;;;;7309759;19;153679;-16
2022/08/10 06:38:48;;;;;;;10.73;6.70;;;;;;;;;;7312448;19;163396;-16
2022/08/10 06:41:25;;;;;;;9.32;6.93;;;;;;;;;;7309305;19;162889;-16
2022/08/10 06:44:03;;;;;;;13.23;7.10;;;;;;;;;;7312466;19;154519;-16
2022/08/10 06:46:39;;;;;;;11.93;7.72;;;;;;;;;;7312531;19;154075;-16
2022/08/10 06:49:13;;;;;;;12.57;7.80;;;;;;;;;;7312054;19;162804;-16
2022/08/10 06:51:47;;;;;;;17.95;8.07;;;;;;;;;;7312158;19;163213;-16
2022/08/10 06:54:23;;;;;;;12.75;8.43;;;;;;;;;;7312291;19;154512;-16
2022/08/10 06:56:58;;;;;;;13.95;8.85;;;;;;;;;;7310120;19;154452;-16
2022/08/10 06:59:49;;;;;;;14.43;9.65;;;;;;;;;;7310011;19;162613;-16
2022/08/10 07:02:27;;;;;;;14.77;9.85;;;;;;;;;;7311375;19;163217;-16
2022/08/10 07:05:03;;;;;;;12.93;10.02;;;;;;;;;;7311896;19;154453;-16
2022/08/10 07:07:40;;;;;;;15.63;11.40;;;;;;;;;;7311478;19;154324;-16
2022/08/10 07:10:18;;;;;;;15.88;11.57;;;;;;;;;;7311312;19;162666;-16
2022/08/10 07:12:50;;;;;;;12.10;10.07;;;;;;;;;;7311071;19;163327;-17
2022/08/10 07:15:22;;;;;;;15.63;11.07;;;;;;;;;;7311782;19;154650;-16
2022/08/10 07:17:55;;;;;;;16.20;10.45;;;;;;;;;;7308862;19;154650;-16
2022/08/10 07:20:27;;;;;;;;;;;;;;;;;;7311690;19;162732;-16
2022/08/10 07:22:59;;;;;;;17.02;11.10;;;;;;;;;;7316171;19;163011;-16
2022/08/10 07:25:34;;;;;;;;;;;;;;;;;;7318926;19;154517;-17
2022/08/10 07:28:07;;;;;;;14.77;10.38;;;;;;;;;;7318027;19;153787;-16
2022/08/10 07:30:41;;;;;;;16.70;10.65;;;;;;;;;;7316280;19;162339;-16
2022/08/10 07:33:15;;;;;;;17.85;10.57;;;;;;;;;;7317252;19;163226;-16
2022/08/10 07:35:49;;;;;;;13.82;10.10;;;;;;;;;;7317619;19;154373;-17
2022/08/10 07:38:23;;;;;;;14.57;10.90;;;;;;;;;;7317722;19;154429;-16
2022/08/10 07:41:00;;;;;;;15.73;10.63;;;;;;;;;;7315271;19;162828;-16
2022/08/10 07:43:35;;;;;;;14.88;10.55;;;;;;;;;;7316987;19;163184;-17
2022/08/10 07:46:11;;;;;;;21.23;10.50;;;;;;;;;;7317494;19;154419;-16
2022/08/10 07:48:47;;;;;;;14.13;10.30;;;;;;;;;;7317437;19;154509;-16
2022/08/10 07:51:21;;;;;;;15.82;10.05;;;;;;;;;;7315450;19;162470;-16
2022/08/10 07:53:55;;;;;;;13.95;10.15;;;;;;;;;;7316746;19;164741;-16
2022/08/10 07:56:32;;;;;;;14.80;10.00;;;;;;;;;;7314805;19;154328;-16
2022/08/10 07:59:22;;;;;;;13.00;9.82;;;;;;;;;;7316458;19;154078;-20
2022/08/10 08:01:57;;;;;;;12.07;9.45;;;;;;;;;;7316654;19;162687;-16
2022/08/10 08:04:30;;;;;;;15.25;9.85;;;;;;;;;;7316320;19;162392;-17
2022/08/10 08:07:03;;;;;;;12.75;10.00;;;;;;;;;;7316792;19;155012;-16
2022/08/10 08:09:37;;;;;;;14.98;9.65;;;;;;;;;;7316444;19;154008;-16
2022/08/10 08:12:13;;;;;;;14.40;9.73;;;;;;;;;;7316851;19;162647;-16
2022/08/10 08:14:46;;;;;;;15.48;9.43;;;;;;;;;;7316128;19;162820;-16
2022/08/10 08:17:18;;;;;;;14.13;9.48;;;;;;;;;;7315870;19;154407;-16
2022/08/10 08:19:51;;;;;;;16.92;9.88;;;;;;;;;;7316805;19;154354;-17
2022/08/10 08:22:25;;;;;;;14.40;9.80;;;;;;;;;;7316174;19;162337;-16
2022/08/10 08:24:59;;;;;;;16.85;10.32;;;;;;;;;;7315587;19;162932;-15
2022/08/10 08:27:34;;;;;;;15.18;9.75;;;;;;;;;;7316583;19;154956;-15
2022/08/10 08:30:07;;;;;;;14.27;10.65;;;;;;;;;;7316004;19;153610;-16
2022/08/10 08:32:42;;;;;;;15.85;9.23;;;;;;;;;;7315337;19;162138;-16
2022/08/10 08:35:17;;;;;;;13.75;9.45;;;;;;;;;;7315248;19;162777;-16
2022/08/10 08:37:51;;;;;;;13.50;9.35;;;;;;;;;;7313861;19;154878;-15
2022/08/10 08:40:26;;;;;;;12.77;9.32;;;;;;;;;;7314712;19;154488;-15
2022/08/10 08:43:17;;;;;;;13.60;9.05;;;;;;;;;;7315248;19;162867;-16
2022/08/10 08:46:05;;;;;;;18.33;9.80;;;;;;;;;;7313737;19;163406;-16
2022/08/10 08:49:13;;;;;;;14.00;9.70;;;;;;;;;;7315925;19;154537;-15
2022/08/10 08:51:55;;;;;;;15.57;9.85;;;;;;;;;;7315209;19;154398;-15
2022/08/10 08:54:40;;;;;;;13.37;9.07;;;;;;;;;;7315393;19;162073;-17
2022/08/10 08:57:24;;;;;;;14.15;9.40;;;;;;;;;;7314135;19;162792;-15
2022/08/10 09:00:08;;;;;;;13.23;9.18;;;;;;;;;;7315440;19;154377;-18
2022/08/10 09:02:59;;;;;;;13.93;9.10;;;;;;;;;;7315308;19;153918;-15
2022/08/10 09:05:43;;;;;;;16.90;9.77;;;;;;;;;;7315212;19;163268;-17
2022/08/10 09:08:29;;;;;;;13.70;8.93;;;;;;;;;;7314707;19;162374;-15
2022/08/10 09:11:03;;;;;;;13.38;8.05;;;;;;;;;;7315291;19;154987;-15
2022/08/10 09:13:41;;;;;;;12.40;8.32;;;;;;;;;;7313354;19;154069;-15
2022/08/10 09:16:26;;;;;;;11.60;9.18;;;;;;;;;;7314581;19;162331;-15
2022/08/10 09:19:04;;;;;;;10.90;8.48;;;;;;;;;;7310232;19;162979;-14
2022/08/10 09:21:44;;;;;;;11.48;9.00;;;;;;;;;;7313773;19;154612;-15
2022/08/10 09:24:21;;;;;;;13.93;8.68;;;;;;;;;;7314675;19;154008;-15
2022/08/10 09:26:54;;;;;;;14.60;8.73;;;;;;;;;;7314013;19;162228;-16
2022/08/10 09:29:28;;;;;;;13.02;8.57;;;;;;;;;;7313909;19;162808;-17
2022/08/10 09:32:10;;;;;;;11.63;8.30;;;;;;;;;;7314288;19;154952;-18
2022/08/10 09:34:51;;;;;;;12.05;8.52;;;;;;;;;;7312419;19;153952;-17
2022/08/10 09:37:30;;;;;;;11.00;8.82;;;;;;;;;;7313365;19;162207;-18
2022/08/10 09:40:05;;;;;;;13.25;8.77;;;;;;;;;;7312768;19;162768;-15
2022/08/10 09:42:45;;;;;;;13.05;8.82;;;;;;;;;;7314523;19;154613;-16
2022/08/10 09:45:32;;;;;;;11.07;8.38;;;;;;;;;;7312577;19;154331;-17
2022/08/10 09:48:12;;;;;;;15.60;8.68;;;;;;;;;;7311720;19;162280;-16
2022/08/10 09:50:56;;;;;;;14.88;9.88;;;;;;;;;;7313020;19;162895;-17
2022/08/10 09:54:06;;;;;;;13.75;9.20;;;;;;;;;;7313370;19;154503;-17
2022/08/10 09:56:48;;;;;;;18.33;9.43;;;;;;;;;;7313326;19;153961;-17
2022/08/10 09:59:30;;;;;;;13.60;9.20;;;;;;;;;;7308912;19;163067;-17
2022/08/10 10:02:15;;;;;;;14.27;9.35;;;;;;;;;;7313364;19;162731;-17
2022/08/10 10:05:04;;;;;;;18.08;10.57;;;;;;;;;;7313493;19;154437;-14
2022/08/10 10:07:40;;;;;;;20.80;10.73;;;;;;;;;;7313506;19;154330;-15
2022/08/10 10:10:15;;;;;;;17.45;9.98;;;;;;;;;;7313002;19;162207;-15
2022/08/10 10:12:54;;;;;;;16.00;9.88;;;;;;;;;;7312674;19;163196;-16
2022/08/10 10:15:35;;;;;;;13.50;9.20;;;;;;;;;;7313445;19;154743;-15
2022/08/10 10:18:18;;;;;;;18.00;9.90;;;;;;;;;;7312308;19;154048;-15
2022/08/10 10:21:00;;;;;;;19.40;9.32;;;;;;;;;;7312899;19;162922;-15
2022/08/10 10:23:44;;;;;;;15.30;9.40;;;;;;;;;;7310985;19;162895;-16
2022/08/10 10:26:38;;;;;;;17.73;9.52;;;;;;;;;;7313009;19;153982;-15
2022/08/10 10:29:18;;;;;;;12.45;9.10;;;;;;;;;;7312920;19;154311;-15
2022/08/10 10:32:18;;;;;;;13.63;9.27;;;;;;;;;;7312620;19;164283;-15
2022/08/10 10:34:57;;;;;;;12.82;9.65;;;;;;;;;;7312375;19;162722;-15
2022/08/10 10:37:33;;;;;;;12.50;8.93;;;;;;;;;;7312962;19;154515;-15
2022/08/10 10:40:06;;;;;;;14.40;9.73;;;;;;;;;;7309208;19;154435;-16
2022/08/10 10:42:48;;;;;;;17.65;10.27;;;;;;;;;;7312175;19;162327;-16
2022/08/10 10:45:23;;;;;;;13.82;9.70;;;;;;;;;;7312108;19;162816;-15
2022/08/10 10:48:06;;;;;;;13.40;9.73;;;;;;;;;;7312470;19;154840;-15
2022/08/10 10:50:49;;;;;;;19.77;10.15;;;;;;;;;;7312319;19;154639;-16
2022/08/10 10:53:29;;;;;;;17.75;9.35;;;;;;;;;;7312009;19;162264;-15
2022/08/10 10:56:06;;;;;;;16.58;11.18;;;;;;;;;;7309640;19;162797;-15
2022/08/10 10:58:45;;;;;;;16.85;10.85;;;;;;;;;;7311145;19;154818;-16
2022/08/10 11:01:40;;;;;;;14.25;9.95;;;;;;;;;;7310323;19;154393;-16
2022/08/10 11:04:22;;;;;;;13.00;9.15;;;;;;;;;;7311715;19;162235;-14
2022/08/10 11:07:09;;;;;;;12.63;9.47;;;;;;;;;;7311303;19;163198;-15
2022/08/10 11:09:49;;;;;;;16.55;10.13;;;;;;;;;;7311649;19;154657;-15
2022/08/10 11:12:27;;;;;;;15.88;10.13;;;;;;;;;;7310021;19;154147;-16
2022/08/10 11:15:06;;;;;;;15.27;10.43;;;;;;;;;;7309737;19;162608;-16
2022/08/10 11:17:44;;;;;;;17.95;10.82;;;;;;;;;;7311189;19;162809;-15
2022/08/10 11:20:19;;;;;;;16.80;10.20;;;;;;;;;;7309046;19;154831;-16
2022/08/10 11:23:00;;;;;;;16.65;11.18;;;;;;;;;;7311322;19;154043;-16
2022/08/10 11:25:38;;;;;;;16.77;11.43;;;;;;;;;;7311101;19;162469;-18
2022/08/10 11:28:16;;;;;;;15.77;11.70;;;;;;;;;;7310842;19;163338;-17
2022/08/10 11:30:59;;;;;;;15.23;11.30;;;;;;;;;;7311489;19;154581;-17
2022/08/10 11:33:40;;;;;;;16.92;10.43;;;;;;;;;;7309444;19;154134;-17
2022/08/10 11:36:37;;;;;;;15.13;11.48;;;;;;;;;;7310704;19;162238;-17
2022/08/10 11:39:16;;;;;;;16.23;11.30;;;;;;;;;;7309857;19;162350;-17
2022/08/10 11:41:54;;;;;;;18.52;10.85;;;;;;;;;;7308252;19;154567;-17
2022/08/10 11:44:31;;;;;;;16.45;12.10;;;;;;;;;;7310667;19;154346;-17
2022/08/10 11:47:11;;;;;;;17.63;12.07;;;;;;;;;;7310032;19;162322;-17
2022/08/10 11:49:51;;;;;;;18.08;12.55;;;;;;;;;;7310070;19;162762;-17
2022/08/10 11:52:29;;;;;;;17.80;12.88;;;;;;;;;;7308981;19;155119;-17
2022/08/10 11:55:09;;;;;;;18.83;12.88;;;;;;;;;;7310280;19;154449;-17
2022/08/10 11:57:45;;;;;;;18.65;12.00;;;;;;;;;;7309924;19;162277;-17
2022/08/10 12:00:16;;;;;;;18.88;13.23;;;;;;;;;;7306231;19;162896;-17
2022/08/10 12:02:51;;;;;;;16.92;11.93;;;;;;;;;;7310260;19;154405;-17
2022/08/10 12:05:27;;;;;;;16.70;11.68;;;;;;;;;;7309675;19;153994;-16
2022/08/10 12:08:01;;;;;;;19.20;12.70;;;;;;;;;;7312000;19;162265;-17
2022/08/10 12:10:34;;;;;;;19.42;12.18;;;;;;;;;;7316593;19;162809;-17
2022/08/10 12:13:17;;;;;;;20.42;12.32;;;;;;;;;;7316574;19;154537;-15
2022/08/10 12:15:54;;;;;;;16.77;12.30;;;;;;;;;;7316385;19;154037;-15
2022/08/10 12:18:31;;;;;;;16.90;11.95;;;;;;;;;;7316155;19;162661;-15
2022/08/10 12:21:07;;;;;;;17.70;12.48;;;;;;;;;;7313717;19;162991;-15
2022/08/10 12:23:45;;;;;;;15.77;11.52;;;;;;;;;;7316460;19;154296;-16
2022/08/10 12:26:19;;;;;;;19.60;12.15;;;;;;;;;;7316392;19;153962;-15
2022/08/10 12:29:02;;;;;;;16.48;11.73;;;;;;;;;;7315722;19;162294;-15
2022/08/10 12:31:42;;;;;;;19.67;13.13;;;;;;;;;;7315703;19;162811;-15
2022/08/10 12:34:21;;;;;;;16.73;10.90;;;;;;;;;;7314187;19;155109;-15
2022/08/10 12:37:02;;;;;;;16.15;11.57;;;;;;;;;;7313932;19;154779;-16
2022/08/10 12:39:41;;;;;;;16.45;11.13;;;;;;;;;;7314462;19;162224;-15
2022/08/10 12:42:19;;;;;;;15.43;11.40;;;;;;;;;;7315401;19;162911;-16
2022/08/10 12:45:00;;;;;;;18.58;11.50;;;;;;;;;;7315889;19;154537;-15
2022/08/10 12:47:41;;;;;;;16.08;11.10;;;;;;;;;;7315109;19;154063;-17
2022/08/10 12:50:19;;;;;;;17.33;11.60;;;;;;;;;;7315548;19;162301;-16
2022/08/10 12:52:59;;;;;;;16.90;11.40;;;;;;;;;;7315560;19;162789;-17
2022/08/10 12:55:34;;;;;;;23.05;11.98;;;;;;;;;;7315481;19;154757;-17
2022/08/10 12:58:07;;;;;;;17.42;10.48;;;;;;;;;;7313679;19;154544;-16
2022/08/10 13:00:44;;;;;;;15.63;10.75;;;;;;;;;;7311750;19;162177;-16
2022/08/10 13:03:32;;;;;;;14.57;11.13;;;;;;;;;;7314759;19;162339;-16
2022/08/10 13:06:06;;;;;;;17.10;11.50;;;;;;;;;;7314872;19;154407;-16
2022/08/10 13:11:27;;;;;;;20.30;12.05;;;;;;;;;;7314645;19;162261;-16
2022/08/10 13:14:03;;;;;;;17.88;11.27;;;;;;;;;;7314698;19;162252;-16
2022/08/10 13:16:38;;;;;;;17.25;11.50;;;;;;;;;;7314939;19;154590;-17
2022/08/10 13:19:12;;;;;;;14.30;10.10;;;;;;;;;;7312857;19;154467;-16
2022/08/10 13:21:44;;;;;;;14.52;10.65;;;;;;;;;;7311886;19;162072;-16
2022/08/10 13:24:19;;;;;;;14.85;11.63;;;;;;;;;;7313871;19;162959;-17
2022/08/10 13:26:54;;;;;;;14.38;9.60;;;;;;;;;;7314510;19;154808;-16
2022/08/10 13:29:28;;;;;;;18.55;10.70;;;;;;;;;;7314377;19;153989;-16
2022/08/10 13:32:05;;;;;;;14.40;10.05;;;;;;;;;;7313996;19;162263;-17
2022/08/10 13:34:39;;;;;;;12.65;10.13;;;;;;;;;;7314286;19;163360;-17
2022/08/10 13:37:17;;;;;;;12.68;10.02;;;;;;;;;;7314153;19;154352;-17
2022/08/10 13:39:51;;;;;;;16.45;10.07;;;;;;;;;;7313279;19;154001;-17
2022/08/10 13:42:24;;;;;;;16.63;10.68;;;;;;;;;;7313919;19;162230;-16
2022/08/10 13:44:57;;;;;;;14.23;9.77;;;;;;;;;;7313832;19;163593;-17
2022/08/10 13:47:35;;;;;;;14.70;9.10;;;;;;;;;;7310840;19;154804;-16
2022/08/10 13:50:11;;;;;;;14.88;9.65;;;;;;;;;;7307922;19;154000;-17
2022/08/10 13:52:44;;;;;;;14.48;9.50;;;;;;;;;;7311465;19;162477;-15
2022/08/10 13:55:18;;;;;;;12.48;8.55;;;;;;;;;;7312631;19;163213;-16
2022/08/10 13:57:55;;;;;;;13.75;8.95;;;;;;;;;;7312138;19;154415;-15
2022/08/10 14:00:33;;;;;;;15.13;9.55;;;;;;;;;;7311736;19;153650;-15
2022/08/10 14:03:12;;;;;;;16.48;9.23;;;;;;;;;;7311754;19;162347;-15
2022/08/10 14:05:51;;;;;;;10.77;8.40;;;;;;;;;;7311427;19;163519;-15
2022/08/10 14:08:26;;;;;;;13.13;8.95;;;;;;;;;;7313268;19;154370;-15
2022/08/10 14:11:02;;;;;;;13.88;9.18;;;;;;;;;;7313169;19;153911;-15
2022/08/10 14:13:38;;;;;;;12.32;8.15;;;;;;;;;;7313097;19;162415;-15
2022/08/10 14:16:11;;;;;;;15.82;9.50;;;;;;;;;;7311576;19;162865;-16
2022/08/10 14:18:46;;;;;;;11.88;8.75;;;;;;;;;;7313119;19;155011;-15
2022/08/10 14:21:18;;;;;;;13.15;8.63;;;;;;;;;;7311912;19;154579;-15
2022/08/10 14:23:51;;;;;;;13.80;8.30;;;;;;;;;;7312118;19;162211;-15
2022/08/10 14:26:26;;;;;;;10.75;8.13;;;;;;;;;;7312524;19;162696;-15
2022/08/10 14:29:04;;;;;;;12.07;7.30;;;;;;;;;;7311472;19;155065;-15
2022/08/10 14:31:39;;;;;;;14.32;8.55;;;;;;;;;;7312238;19;154223;-15
2022/08/10 14:34:15;;;;;;;14.10;8.00;;;;;;;;;;7312204;19;162698;-15
2022/08/10 14:36:53;;;;;;;12.48;8.05;;;;;;;;;;7312316;19;163186;-17
2022/08/10 14:39:27;;;;;;;13.25;7.85;;;;;;;;;;7312071;19;154996;-15
2022/08/10 14:42:01;;;;;;;12.57;8.43;;;;;;;;;;7308791;19;154732;-16
2022/08/10 14:44:46;;;;;;;11.15;8.40;;;;;;;;;;7312063;19;162766;-15
2022/08/10 14:47:22;;;;;;;11.80;7.45;;;;;;;;;;7312231;19;163331;-15
2022/08/10 14:49:57;;;;;;;10.32;7.72;;;;;;;;;;7310784;19;155064;-15
2022/08/10 14:52:30;;;;;;;10.85;8.10;;;;;;;;;;7310663;19;154712;-15
2022/08/10 14:55:08;;;;;;;10.38;7.90;;;;;;;;;;7311605;19;162322;-15
2022/08/10 14:57:42;;;;;;;9.35;8.23;;;;;;;;;;7309985;19;163419;-15
2022/08/10 15:00:14;;;;;;;9.13;7.30;;;;;;;;;;7312377;19;154769;-16
2022/08/10 15:03:08;;;;;;;10.63;7.93;;;;;;;;;;7311933;19;154286;-16
2022/08/10 15:05:45;;;;;;;13.52;7.78;;;;;;;;;;7311084;19;162332;-19
2022/08/10 15:08:18;;;;;;;8.90;7.80;;;;;;;;;;7311122;19;162944;-16
2022/08/10 15:10:49;;;;;;;11.75;7.32;;;;;;;;;;7311305;19;154606;-16
2022/08/10 15:13:21;;;;;;;10.05;7.63;;;;;;;;;;7311085;19;154536;-16
2022/08/10 15:15:55;;;;;;;14.05;7.90;;;;;;;;;;7310645;19;162827;-15
2022/08/10 15:18:44;;;;;;;8.68;7.53;;;;;;;;;;7310369;19;163378;-16